sensor_id;sensor_type;location;lat;lon;timestamp;temperature;humidity
5554;DHT22;2800;49.528;8.666;2023-06-22T00:00:47;21.60;99.90
5554;DHT22;2800;49.528;8.666;2023-06-22T00:03:13;21.50;99.90
5554;DHT22;2800;49.528;8.666;2023-06-22T00:05:38;21.50;99.90
5554;DHT22;2800;49.528;8.666;2023-06-22T00:08:04;21.50;99.90
5554;DHT22;2800;49.528;8.666;2023-06-22T00:10:33;21.40;99.90
5554;DHT22;2800;49.528;8.666;2023-06-22T00:12:58;21.40;99.90
5554;DHT22;2800;49.528;8.666;2023-06-22T00:15:24;21.50;99.90
5554;DHT22;2800;49.528;8.666;2023-06-22T00:17:50;21.60;99.90
5554;DHT22;2800;49.528;8.666;2023-06-22T00:20:16;22.00;99.90
5554;DHT22;2800;49.528;8.666;2023-06-22T00:22:46;21.70;99.90
5554;DHT22;2800;49.528;8.666;2023-06-22T00:25:13;21.70;99.90
5554;DHT22;2800;49.528;8.666;2023-06-22T00:27:38;21.70;99.90
5554;DHT22;2800;49.528;8.666;2023-06-22T00:30:04;21.60;99.90
5554;DHT22;2800;49.528;8.666;2023-06-22T00:32:30;21.60;99.90
5554;DHT22;2800;49.528;8.666;2023-06-22T00:34:55;21.70;99.90
5554;DHT22;2800;49.528;8.666;2023-06-22T00:37:21;21.80;99.90
5554;DHT22;2800;49.528;8.666;2023-06-22T00:39:51;21.90;99.90
5554;DHT22;2800;49.528;8.666;2023-06-22T00:42:17;22.10;99.90
5554;DHT22;2800;49.528;8.666;2023-06-22T00:44:43;22.10;99.90
5554;DHT22;2800;49.528;8.666;2023-06-22T00:47:10;22.20;99.90
5554;DHT22;2800;49.528;8.666;2023-06-22T00:49:38;22.20;99.90
5554;DHT22;2800;49.528;8.666;2023-06-22T00:52:05;22.20;99.90
5554;DHT22;2800;49.528;8.666;2023-06-22T00:54:35;22.20;99.90
5554;DHT22;2800;49.528;8.666;2023-06-22T00:57:01;22.30;99.90
5554;DHT22;2800;49.528;8.666;2023-06-22T00:59:27;22.40;99.90
5554;DHT22;2800;49.528;8.666;2023-06-22T01:01:53;22.40;99.90
5554;DHT22;2800;49.528;8.666;2023-06-22T01:04:18;22.40;99.90
5554;DHT22;2800;49.528;8.666;2023-06-22T01:07:13;22.20;99.90
5554;DHT22;2800;49.528;8.666;2023-06-22T01:10:14;21.90;99.90
5554;DHT22;2800;49.528;8.666;2023-06-22T01:13:02;21.50;99.90
5554;DHT22;2800;49.528;8.666;2023-06-22T01:15:39;21.30;99.90
5554;DHT22;2800;49.528;8.666;2023-06-22T01:18:06;21.30;99.90
5554;DHT22;2800;49.528;8.666;2023-06-22T01:20:34;21.30;99.90
5554;DHT22;2800;49.528;8.666;2023-06-22T01:23:09;21.30;99.90
5554;DHT22;2800;49.528;8.666;2023-06-22T01:25:46;21.00;99.90
5554;DHT22;2800;49.528;8.666;2023-06-22T01:28:39;21.00;99.90
5554;DHT22;2800;49.528;8.666;2023-06-22T01:31:07;21.10;99.90
5554;DHT22;2800;49.528;8.666;2023-06-22T01:33:38;21.10;99.90
5554;DHT22;2800;49.528;8.666;2023-06-22T01:36:05;21.20;99.90
5554;DHT22;2800;49.528;8.666;2023-06-22T01:38:32;21.00;99.90
5554;DHT22;2800;49.528;8.666;2023-06-22T01:40:58;21.10;99.90
5554;DHT22;2800;49.528;8.666;2023-06-22T01:43:26;21.10;99.90
5554;DHT22;2800;49.528;8.666;2023-06-22T01:45:54;21.10;99.90
5554;DHT22;2800;49.528;8.666;2023-06-22T01:48:20;20.90;99.90
5554;DHT22;2800;49.528;8.666;2023-06-22T01:50:47;20.90;99.90
5554;DHT22;2800;49.528;8.666;2023-06-22T01:53:12;20.90;99.90
5554;DHT22;2800;49.528;8.666;2023-06-22T01:55:38;20.80;99.90
5554;DHT22;2800;49.528;8.666;2023-06-22T01:58:03;20.60;99.90
5554;DHT22;2800;49.528;8.666;2023-06-22T02:00:32;20.40;99.90
5554;DHT22;2800;49.528;8.666;2023-06-22T02:03:10;20.20;99.90
5554;DHT22;2800;49.528;8.666;2023-06-22T02:05:46;19.90;99.90
5554;DHT22;2800;49.528;8.666;2023-06-22T02:08:25;19.70;99.90
5554;DHT22;2800;49.528;8.666;2023-06-22T02:10:54;19.70;99.90
5554;DHT22;2800;49.528;8.666;2023-06-22T02:13:20;19.70;99.90
5554;DHT22;2800;49.528;8.666;2023-06-22T02:15:47;19.60;99.90
5554;DHT22;2800;49.528;8.666;2023-06-22T02:18:13;19.70;99.90
5554;DHT22;2800;49.528;8.666;2023-06-22T02:20:39;19.80;99.90
5554;DHT22;2800;49.528;8.666;2023-06-22T02:23:06;19.70;99.90
5554;DHT22;2800;49.528;8.666;2023-06-22T02:25:32;19.50;99.90
5554;DHT22;2800;49.528;8.666;2023-06-22T02:27:58;19.50;99.90
5554;DHT22;2800;49.528;8.666;2023-06-22T02:30:24;19.60;99.90
5554;DHT22;2800;49.528;8.666;2023-06-22T02:32:50;19.70;99.90
5554;DHT22;2800;49.528;8.666;2023-06-22T02:35:28;19.70;99.90
5554;DHT22;2800;49.528;8.666;2023-06-22T02:38:00;19.70;99.90
5554;DHT22;2800;49.528;8.666;2023-06-22T02:40:26;19.60;99.90
5554;DHT22;2800;49.528;8.666;2023-06-22T02:42:52;19.60;99.90
5554;DHT22;2800;49.528;8.666;2023-06-22T02:45:17;19.70;99.90
5554;DHT22;2800;49.528;8.666;2023-06-22T02:47:43;19.70;99.90
5554;DHT22;2800;49.528;8.666;2023-06-22T02:50:09;19.70;99.90
5554;DHT22;2800;49.528;8.666;2023-06-22T02:52:35;19.80;99.90
5554;DHT22;2800;49.528;8.666;2023-06-22T02:55:00;19.80;99.90
5554;DHT22;2800;49.528;8.666;2023-06-22T02:57:26;19.80;99.90
5554;DHT22;2800;49.528;8.666;2023-06-22T02:59:52;19.90;99.90
5554;DHT22;2800;49.528;8.666;2023-06-22T03:02:17;19.80;99.90
5554;DHT22;2800;49.528;8.666;2023-06-22T03:04:46;19.70;99.90
5554;DHT22;2800;49.528;8.666;2023-06-22T03:07:14;19.50;99.90
5554;DHT22;2800;49.528;8.666;2023-06-22T03:09:40;19.40;99.90
5554;DHT22;2800;49.528;8.666;2023-06-22T03:12:07;19.30;99.90
5554;DHT22;2800;49.528;8.666;2023-06-22T03:14:33;19.30;99.90
5554;DHT22;2800;49.528;8.666;2023-06-22T03:16:58;19.30;99.90
5554;DHT22;2800;49.528;8.666;2023-06-22T03:19:28;19.20;99.90
5554;DHT22;2800;49.528;8.666;2023-06-22T03:21:55;19.20;99.90
5554;DHT22;2800;49.528;8.666;2023-06-22T03:24:20;19.20;99.90
5554;DHT22;2800;49.528;8.666;2023-06-22T03:26:46;19.10;99.90
5554;DHT22;2800;49.528;8.666;2023-06-22T03:29:12;19.10;99.90
5554;DHT22;2800;49.528;8.666;2023-06-22T03:31:38;19.00;99.90
5554;DHT22;2800;49.528;8.666;2023-06-22T03:34:04;19.00;99.90
5554;DHT22;2800;49.528;8.666;2023-06-22T03:36:30;19.00;99.90
5554;DHT22;2800;49.528;8.666;2023-06-22T03:38:55;19.10;99.90
5554;DHT22;2800;49.528;8.666;2023-06-22T03:41:21;19.10;99.90
5554;DHT22;2800;49.528;8.666;2023-06-22T03:43:46;19.20;99.90
5554;DHT22;2800;49.528;8.666;2023-06-22T03:46:12;19.10;99.90
5554;DHT22;2800;49.528;8.666;2023-06-22T03:48:38;19.10;99.90
5554;DHT22;2800;49.528;8.666;2023-06-22T03:51:03;19.10;99.90
5554;DHT22;2800;49.528;8.666;2023-06-22T03:53:29;19.10;99.90
5554;DHT22;2800;49.528;8.666;2023-06-22T03:55:55;19.20;99.90
5554;DHT22;2800;49.528;8.666;2023-06-22T03:58:21;19.10;99.90
5554;DHT22;2800;49.528;8.666;2023-06-22T04:00:51;19.10;99.90
5554;DHT22;2800;49.528;8.666;2023-06-22T04:03:17;19.70;99.90
5554;DHT22;2800;49.528;8.666;2023-06-22T04:05:46;19.00;99.90
5554;DHT22;2800;49.528;8.666;2023-06-22T04:08:12;19.00;99.90
5554;DHT22;2800;49.528;8.666;2023-06-22T04:10:38;19.00;99.90
5554;DHT22;2800;49.528;8.666;2023-06-22T04:13:04;19.00;99.90
5554;DHT22;2800;49.528;8.666;2023-06-22T04:15:29;19.10;99.90
5554;DHT22;2800;49.528;8.666;2023-06-22T04:17:55;19.10;99.90
5554;DHT22;2800;49.528;8.666;2023-06-22T04:20:21;19.20;99.90
5554;DHT22;2800;49.528;8.666;2023-06-22T04:22:47;19.20;99.90
5554;DHT22;2800;49.528;8.666;2023-06-22T04:25:12;19.10;99.90
5554;DHT22;2800;49.528;8.666;2023-06-22T04:27:38;19.10;99.90
5554;DHT22;2800;49.528;8.666;2023-06-22T04:30:07;19.20;99.90
5554;DHT22;2800;49.528;8.666;2023-06-22T04:32:34;19.30;99.90
5554;DHT22;2800;49.528;8.666;2023-06-22T04:35:01;19.40;99.90
5554;DHT22;2800;49.528;8.666;2023-06-22T04:37:27;19.50;99.90
5554;DHT22;2800;49.528;8.666;2023-06-22T04:39:53;19.60;99.90
5554;DHT22;2800;49.528;8.666;2023-06-22T04:42:18;19.70;99.90
5554;DHT22;2800;49.528;8.666;2023-06-22T04:44:44;19.80;99.90
5554;DHT22;2800;49.528;8.666;2023-06-22T04:47:09;19.80;99.90
5554;DHT22;2800;49.528;8.666;2023-06-22T04:49:36;19.90;99.90
5554;DHT22;2800;49.528;8.666;2023-06-22T04:52:03;20.00;99.90
5554;DHT22;2800;49.528;8.666;2023-06-22T04:54:29;20.10;99.90
5554;DHT22;2800;49.528;8.666;2023-06-22T04:56:58;20.20;99.90
5554;DHT22;2800;49.528;8.666;2023-06-22T04:59:24;20.30;99.90
5554;DHT22;2800;49.528;8.666;2023-06-22T05:01:58;20.40;99.90
5554;DHT22;2800;49.528;8.666;2023-06-22T05:04:25;20.40;99.90
5554;DHT22;2800;49.528;8.666;2023-06-22T05:06:51;20.40;99.90
5554;DHT22;2800;49.528;8.666;2023-06-22T05:09:17;20.50;99.90
5554;DHT22;2800;49.528;8.666;2023-06-22T05:11:44;20.60;99.90
5554;DHT22;2800;49.528;8.666;2023-06-22T05:14:09;20.70;99.90
5554;DHT22;2800;49.528;8.666;2023-06-22T05:16:36;20.80;99.90
5554;DHT22;2800;49.528;8.666;2023-06-22T05:19:02;21.00;99.90
5554;DHT22;2800;49.528;8.666;2023-06-22T05:21:31;21.10;99.90
5554;DHT22;2800;49.528;8.666;2023-06-22T05:23:57;21.10;99.90
5554;DHT22;2800;49.528;8.666;2023-06-22T05:26:29;21.20;99.90
5554;DHT22;2800;49.528;8.666;2023-06-22T05:28:54;21.40;99.90
5554;DHT22;2800;49.528;8.666;2023-06-22T05:31:20;21.50;99.90
5554;DHT22;2800;49.528;8.666;2023-06-22T05:33:46;21.60;99.90
5554;DHT22;2800;49.528;8.666;2023-06-22T05:36:12;21.70;99.90
5554;DHT22;2800;49.528;8.666;2023-06-22T05:38:40;21.80;99.90
5554;DHT22;2800;49.528;8.666;2023-06-22T05:41:06;22.00;99.90
5554;DHT22;2800;49.528;8.666;2023-06-22T05:43:32;22.00;99.90
5554;DHT22;2800;49.528;8.666;2023-06-22T05:45:58;22.10;99.90
5554;DHT22;2800;49.528;8.666;2023-06-22T05:48:24;22.40;99.90
5554;DHT22;2800;49.528;8.666;2023-06-22T05:50:49;22.30;99.90
5554;DHT22;2800;49.528;8.666;2023-06-22T05:53:15;22.40;99.90
5554;DHT22;2800;49.528;8.666;2023-06-22T05:55:41;22.50;99.90
5554;DHT22;2800;49.528;8.666;2023-06-22T05:58:07;22.70;99.90
5554;DHT22;2800;49.528;8.666;2023-06-22T06:00:33;22.70;99.90
5554;DHT22;2800;49.528;8.666;2023-06-22T06:02:59;22.90;99.90
5554;DHT22;2800;49.528;8.666;2023-06-22T06:05:30;23.00;99.90
5554;DHT22;2800;49.528;8.666;2023-06-22T06:07:55;23.10;99.90
5554;DHT22;2800;49.528;8.666;2023-06-22T06:10:21;23.20;99.90
5554;DHT22;2800;49.528;8.666;2023-06-22T06:12:46;23.30;99.90
5554;DHT22;2800;49.528;8.666;2023-06-22T06:15:12;23.50;99.90
5554;DHT22;2800;49.528;8.666;2023-06-22T06:17:51;23.50;99.90
5554;DHT22;2800;49.528;8.666;2023-06-22T06:20:22;23.60;99.90
5554;DHT22;2800;49.528;8.666;2023-06-22T06:22:48;23.70;99.90
5554;DHT22;2800;49.528;8.666;2023-06-22T06:25:14;23.80;99.90
5554;DHT22;2800;49.528;8.666;2023-06-22T06:27:46;24.00;99.90
5554;DHT22;2800;49.528;8.666;2023-06-22T06:30:12;24.10;99.90
5554;DHT22;2800;49.528;8.666;2023-06-22T06:32:38;24.20;99.90
5554;DHT22;2800;49.528;8.666;2023-06-22T06:35:09;24.50;99.90
5554;DHT22;2800;49.528;8.666;2023-06-22T06:37:40;24.60;99.90
5554;DHT22;2800;49.528;8.666;2023-06-22T06:40:06;24.80;99.90
5554;DHT22;2800;49.528;8.666;2023-06-22T06:42:42;24.90;99.90
5554;DHT22;2800;49.528;8.666;2023-06-22T06:45:10;25.10;99.90
5554;DHT22;2800;49.528;8.666;2023-06-22T06:47:36;25.20;99.90
5554;DHT22;2800;49.528;8.666;2023-06-22T06:50:03;25.30;99.90
5554;DHT22;2800;49.528;8.666;2023-06-22T06:52:29;25.20;99.90
5554;DHT22;2800;49.528;8.666;2023-06-22T06:54:54;25.60;99.90
5554;DHT22;2800;49.528;8.666;2023-06-22T06:57:20;25.70;99.90
5554;DHT22;2800;49.528;8.666;2023-06-22T06:59:46;25.80;99.90
5554;DHT22;2800;49.528;8.666;2023-06-22T07:02:11;25.90;99.90
5554;DHT22;2800;49.528;8.666;2023-06-22T07:04:40;25.80;99.90
5554;DHT22;2800;49.528;8.666;2023-06-22T07:07:05;25.90;99.90
5554;DHT22;2800;49.528;8.666;2023-06-22T07:09:31;26.30;99.90
5554;DHT22;2800;49.528;8.666;2023-06-22T07:11:56;26.70;99.90
5554;DHT22;2800;49.528;8.666;2023-06-22T07:14:22;26.60;99.90
5554;DHT22;2800;49.528;8.666;2023-06-22T07:16:47;27.00;99.90
5554;DHT22;2800;49.528;8.666;2023-06-22T07:19:13;27.40;99.90
5554;DHT22;2800;49.528;8.666;2023-06-22T07:21:38;26.50;99.90
5554;DHT22;2800;49.528;8.666;2023-06-22T07:24:07;26.60;99.90
5554;DHT22;2800;49.528;8.666;2023-06-22T07:26:33;26.80;99.90
5554;DHT22;2800;49.528;8.666;2023-06-22T07:28:58;27.20;99.90
5554;DHT22;2800;49.528;8.666;2023-06-22T07:31:24;27.00;99.90
5554;DHT22;2800;49.528;8.666;2023-06-22T07:33:50;27.50;99.90
5554;DHT22;2800;49.528;8.666;2023-06-22T07:36:17;27.80;99.90
5554;DHT22;2800;49.528;8.666;2023-06-22T07:38:43;28.00;99.90
5554;DHT22;2800;49.528;8.666;2023-06-22T07:41:08;27.60;99.90
5554;DHT22;2800;49.528;8.666;2023-06-22T07:43:34;27.60;99.90
5554;DHT22;2800;49.528;8.666;2023-06-22T07:46:03;27.40;99.90
5554;DHT22;2800;49.528;8.666;2023-06-22T07:48:28;27.20;99.90
5554;DHT22;2800;49.528;8.666;2023-06-22T07:50:54;27.10;99.90
5554;DHT22;2800;49.528;8.666;2023-06-22T07:53:20;27.10;99.90
5554;DHT22;2800;49.528;8.666;2023-06-22T07:55:46;27.50;99.90
5554;DHT22;2800;49.528;8.666;2023-06-22T07:58:11;27.80;99.90
5554;DHT22;2800;49.528;8.666;2023-06-22T08:00:37;27.70;99.90
5554;DHT22;2800;49.528;8.666;2023-06-22T08:03:03;27.80;99.90
5554;DHT22;2800;49.528;8.666;2023-06-22T08:05:30;27.80;99.90
5554;DHT22;2800;49.528;8.666;2023-06-22T08:07:56;28.20;99.90
5554;DHT22;2800;49.528;8.666;2023-06-22T08:10:21;28.00;99.90
5554;DHT22;2800;49.528;8.666;2023-06-22T08:12:47;27.70;99.90
5554;DHT22;2800;49.528;8.666;2023-06-22T08:15:13;28.10;99.90
5554;DHT22;2800;49.528;8.666;2023-06-22T08:17:39;28.60;99.90
5554;DHT22;2800;49.528;8.666;2023-06-22T08:20:05;28.60;99.90
5554;DHT22;2800;49.528;8.666;2023-06-22T08:22:35;28.60;99.90
5554;DHT22;2800;49.528;8.666;2023-06-22T08:25:02;28.30;99.90
5554;DHT22;2800;49.528;8.666;2023-06-22T08:27:29;28.50;99.90
5554;DHT22;2800;49.528;8.666;2023-06-22T08:29:57;28.80;99.90
5554;DHT22;2800;49.528;8.666;2023-06-22T08:32:27;28.20;99.90
5554;DHT22;2800;49.528;8.666;2023-06-22T08:34:56;28.40;99.90
5554;DHT22;2800;49.528;8.666;2023-06-22T08:37:22;28.60;99.90
5554;DHT22;2800;49.528;8.666;2023-06-22T08:39:58;28.40;99.90
5554;DHT22;2800;49.528;8.666;2023-06-22T08:42:23;28.50;99.90
5554;DHT22;2800;49.528;8.666;2023-06-22T08:44:50;29.10;99.90
5554;DHT22;2800;49.528;8.666;2023-06-22T08:47:15;29.90;99.90
5554;DHT22;2800;49.528;8.666;2023-06-22T08:49:41;30.50;99.30
5554;DHT22;2800;49.528;8.666;2023-06-22T08:52:07;30.60;92.90
5554;DHT22;2800;49.528;8.666;2023-06-22T08:54:33;30.60;91.90
5554;DHT22;2800;49.528;8.666;2023-06-22T08:57:00;31.10;90.10
5554;DHT22;2800;49.528;8.666;2023-06-22T08:59:26;31.40;83.90
5554;DHT22;2800;49.528;8.666;2023-06-22T09:01:51;32.00;80.60
5554;DHT22;2800;49.528;8.666;2023-06-22T09:04:17;32.30;68.70
5554;DHT22;2800;49.528;8.666;2023-06-22T09:06:42;32.00;68.00
5554;DHT22;2800;49.528;8.666;2023-06-22T09:09:13;32.40;66.30
5554;DHT22;2800;49.528;8.666;2023-06-22T09:11:39;31.60;63.00
5554;DHT22;2800;49.528;8.666;2023-06-22T09:14:04;30.80;61.50
5554;DHT22;2800;49.528;8.666;2023-06-22T09:16:30;30.60;62.80
5554;DHT22;2800;49.528;8.666;2023-06-22T09:18:56;30.60;65.30
5554;DHT22;2800;49.528;8.666;2023-06-22T09:21:21;30.50;63.80
5554;DHT22;2800;49.528;8.666;2023-06-22T09:23:47;30.60;65.40
5554;DHT22;2800;49.528;8.666;2023-06-22T09:26:19;30.70;64.90
5554;DHT22;2800;49.528;8.666;2023-06-22T09:28:45;31.20;62.90
5554;DHT22;2800;49.528;8.666;2023-06-22T09:31:11;30.90;63.90
5554;DHT22;2800;49.528;8.666;2023-06-22T09:33:37;30.90;67.60
5554;DHT22;2800;49.528;8.666;2023-06-22T09:36:06;31.90;67.50
5554;DHT22;2800;49.528;8.666;2023-06-22T09:38:38;31.80;63.90
5554;DHT22;2800;49.528;8.666;2023-06-22T09:41:04;32.20;62.00
5554;DHT22;2800;49.528;8.666;2023-06-22T09:43:32;32.60;59.10
5554;DHT22;2800;49.528;8.666;2023-06-22T09:45:57;32.40;59.50
5554;DHT22;2800;49.528;8.666;2023-06-22T09:48:23;32.80;59.60
5554;DHT22;2800;49.528;8.666;2023-06-22T09:50:49;33.00;57.80
5554;DHT22;2800;49.528;8.666;2023-06-22T09:53:14;33.00;61.40
5554;DHT22;2800;49.528;8.666;2023-06-22T09:55:40;34.40;60.70
5554;DHT22;2800;49.528;8.666;2023-06-22T09:58:05;34.40;57.10
5554;DHT22;2800;49.528;8.666;2023-06-22T10:00:31;34.50;55.60
5554;DHT22;2800;49.528;8.666;2023-06-22T10:02:57;34.50;54.50
5554;DHT22;2800;49.528;8.666;2023-06-22T10:05:23;34.10;53.20
5554;DHT22;2800;49.528;8.666;2023-06-22T10:07:49;33.90;50.10
5554;DHT22;2800;49.528;8.666;2023-06-22T10:10:14;33.60;52.70
5554;DHT22;2800;49.528;8.666;2023-06-22T10:12:48;34.40;51.50
5554;DHT22;2800;49.528;8.666;2023-06-22T10:15:19;33.70;50.20
5554;DHT22;2800;49.528;8.666;2023-06-22T10:17:46;33.30;53.40
5554;DHT22;2800;49.528;8.666;2023-06-22T10:20:12;33.90;55.40
5554;DHT22;2800;49.528;8.666;2023-06-22T10:22:43;34.00;56.50
5554;DHT22;2800;49.528;8.666;2023-06-22T10:25:10;33.00;56.70
5554;DHT22;2800;49.528;8.666;2023-06-22T10:27:35;32.80;56.60
5554;DHT22;2800;49.528;8.666;2023-06-22T10:30:01;32.30;57.40
5554;DHT22;2800;49.528;8.666;2023-06-22T10:32:27;32.20;57.00
5554;DHT22;2800;49.528;8.666;2023-06-22T10:34:54;32.00;58.70
5554;DHT22;2800;49.528;8.666;2023-06-22T10:37:19;32.30;58.70
5554;DHT22;2800;49.528;8.666;2023-06-22T10:39:45;32.30;58.90
5554;DHT22;2800;49.528;8.666;2023-06-22T10:42:11;31.90;58.40
5554;DHT22;2800;49.528;8.666;2023-06-22T10:44:37;31.40;58.90
5554;DHT22;2800;49.528;8.666;2023-06-22T10:47:04;31.10;64.70
5554;DHT22;2800;49.528;8.666;2023-06-22T10:49:29;30.80;64.10
5554;DHT22;2800;49.528;8.666;2023-06-22T10:51:55;30.60;65.80
5554;DHT22;2800;49.528;8.666;2023-06-22T10:54:21;30.60;63.60
5554;DHT22;2800;49.528;8.666;2023-06-22T10:56:46;30.60;63.80
5554;DHT22;2800;49.528;8.666;2023-06-22T10:59:12;31.20;60.60
5554;DHT22;2800;49.528;8.666;2023-06-22T11:01:37;31.70;60.20
5554;DHT22;2800;49.528;8.666;2023-06-22T11:04:03;31.90;59.40
5554;DHT22;2800;49.528;8.666;2023-06-22T11:06:29;32.80;58.10
5554;DHT22;2800;49.528;8.666;2023-06-22T11:08:55;33.50;56.80
5554;DHT22;2800;49.528;8.666;2023-06-22T11:11:20;32.70;56.30
5554;DHT22;2800;49.528;8.666;2023-06-22T11:13:46;32.80;55.00
5554;DHT22;2800;49.528;8.666;2023-06-22T11:16:11;32.30;55.70
5554;DHT22;2800;49.528;8.666;2023-06-22T11:18:37;32.20;55.70
5554;DHT22;2800;49.528;8.666;2023-06-22T11:21:02;31.80;56.70
5554;DHT22;2800;49.528;8.666;2023-06-22T11:23:28;31.50;58.10
5554;DHT22;2800;49.528;8.666;2023-06-22T11:25:54;31.40;60.10
5554;DHT22;2800;49.528;8.666;2023-06-22T11:28:20;32.10;58.70
5554;DHT22;2800;49.528;8.666;2023-06-22T11:30:45;32.50;56.90
5554;DHT22;2800;49.528;8.666;2023-06-22T11:33:11;32.10;58.00
5554;DHT22;2800;49.528;8.666;2023-06-22T11:35:37;32.20;62.20
5554;DHT22;2800;49.528;8.666;2023-06-22T11:38:02;32.40;61.10
5554;DHT22;2800;49.528;8.666;2023-06-22T11:40:29;32.10;59.50
5554;DHT22;2800;49.528;8.666;2023-06-22T11:42:55;31.80;59.20
5554;DHT22;2800;49.528;8.666;2023-06-22T11:45:20;31.60;60.70
5554;DHT22;2800;49.528;8.666;2023-06-22T11:47:46;31.80;59.80
5554;DHT22;2800;49.528;8.666;2023-06-22T11:50:12;31.80;60.20
5554;DHT22;2800;49.528;8.666;2023-06-22T11:52:37;32.30;59.90
5554;DHT22;2800;49.528;8.666;2023-06-22T11:55:04;33.00;60.60
5554;DHT22;2800;49.528;8.666;2023-06-22T11:57:33;33.00;64.50
5554;DHT22;2800;49.528;8.666;2023-06-22T11:59:59;33.00;69.70
5554;DHT22;2800;49.528;8.666;2023-06-22T12:02:24;32.70;63.30
5554;DHT22;2800;49.528;8.666;2023-06-22T12:04:50;32.40;66.50
5554;DHT22;2800;49.528;8.666;2023-06-22T12:07:18;32.10;58.60
5554;DHT22;2800;49.528;8.666;2023-06-22T12:09:43;32.00;57.10
5554;DHT22;2800;49.528;8.666;2023-06-22T12:12:09;32.20;60.60
5554;DHT22;2800;49.528;8.666;2023-06-22T12:14:35;32.40;59.90
5554;DHT22;2800;49.528;8.666;2023-06-22T12:17:01;32.40;58.70
5554;DHT22;2800;49.528;8.666;2023-06-22T12:19:26;32.30;60.70
5554;DHT22;2800;49.528;8.666;2023-06-22T12:21:52;32.30;59.60
5554;DHT22;2800;49.528;8.666;2023-06-22T12:24:17;32.60;59.60
5554;DHT22;2800;49.528;8.666;2023-06-22T12:26:43;32.60;57.30
5554;DHT22;2800;49.528;8.666;2023-06-22T12:29:08;32.60;52.60
5554;DHT22;2800;49.528;8.666;2023-06-22T12:31:35;32.30;53.40
5554;DHT22;2800;49.528;8.666;2023-06-22T12:34:02;32.50;50.60
5554;DHT22;2800;49.528;8.666;2023-06-22T12:36:27;32.50;51.50
5554;DHT22;2800;49.528;8.666;2023-06-22T12:38:53;32.50;54.30
5554;DHT22;2800;49.528;8.666;2023-06-22T12:41:19;33.00;49.40
5554;DHT22;2800;49.528;8.666;2023-06-22T12:43:46;32.50;49.00
5554;DHT22;2800;49.528;8.666;2023-06-22T12:46:12;32.30;49.30
5554;DHT22;2800;49.528;8.666;2023-06-22T12:48:37;32.60;49.70
5554;DHT22;2800;49.528;8.666;2023-06-22T12:51:07;32.20;49.10
5554;DHT22;2800;49.528;8.666;2023-06-22T12:53:33;33.10;50.20
5554;DHT22;2800;49.528;8.666;2023-06-22T12:55:59;32.30;48.10
5554;DHT22;2800;49.528;8.666;2023-06-22T12:58:24;33.60;46.90
5554;DHT22;2800;49.528;8.666;2023-06-22T13:00:50;33.60;45.70
5554;DHT22;2800;49.528;8.666;2023-06-22T13:03:15;33.20;47.70
5554;DHT22;2800;49.528;8.666;2023-06-22T13:05:41;32.60;46.20
5554;DHT22;2800;49.528;8.666;2023-06-22T13:08:06;32.30;48.70
5554;DHT22;2800;49.528;8.666;2023-06-22T13:10:33;32.30;46.60
5554;DHT22;2800;49.528;8.666;2023-06-22T13:12:59;32.40;46.40
5554;DHT22;2800;49.528;8.666;2023-06-22T13:15:27;32.00;46.20
5554;DHT22;2800;49.528;8.666;2023-06-22T13:17:53;31.80;46.40
5554;DHT22;2800;49.528;8.666;2023-06-22T13:20:19;32.00;46.60
5554;DHT22;2800;49.528;8.666;2023-06-22T13:22:44;31.90;47.40
5554;DHT22;2800;49.528;8.666;2023-06-22T13:25:10;32.30;49.50
5554;DHT22;2800;49.528;8.666;2023-06-22T13:27:38;32.90;48.30
5554;DHT22;2800;49.528;8.666;2023-06-22T13:30:05;32.90;48.40
5554;DHT22;2800;49.528;8.666;2023-06-22T13:32:30;33.20;53.10
5554;DHT22;2800;49.528;8.666;2023-06-22T13:34:56;34.20;51.10
5554;DHT22;2800;49.528;8.666;2023-06-22T13:37:21;34.30;52.00
5554;DHT22;2800;49.528;8.666;2023-06-22T13:39:47;34.40;54.60
5554;DHT22;2800;49.528;8.666;2023-06-22T13:42:12;34.20;53.70
5554;DHT22;2800;49.528;8.666;2023-06-22T13:44:38;34.20;54.00
5554;DHT22;2800;49.528;8.666;2023-06-22T13:47:04;34.60;53.00
5554;DHT22;2800;49.528;8.666;2023-06-22T13:49:30;34.60;52.30
5554;DHT22;2800;49.528;8.666;2023-06-22T13:51:55;34.00;51.80
5554;DHT22;2800;49.528;8.666;2023-06-22T13:54:21;33.10;50.80
5554;DHT22;2800;49.528;8.666;2023-06-22T13:56:47;32.80;53.60
5554;DHT22;2800;49.528;8.666;2023-06-22T13:59:12;33.10;54.40
5554;DHT22;2800;49.528;8.666;2023-06-22T14:01:38;32.90;51.90
5554;DHT22;2800;49.528;8.666;2023-06-22T14:04:07;32.70;52.40
5554;DHT22;2800;49.528;8.666;2023-06-22T14:06:32;32.40;51.10
5554;DHT22;2800;49.528;8.666;2023-06-22T14:08:58;32.20;52.40
5554;DHT22;2800;49.528;8.666;2023-06-22T14:11:24;31.60;51.70
5554;DHT22;2800;49.528;8.666;2023-06-22T14:13:50;31.20;52.80
5554;DHT22;2800;49.528;8.666;2023-06-22T14:16:15;31.20;54.70
5554;DHT22;2800;49.528;8.666;2023-06-22T14:18:41;31.10;55.50
5554;DHT22;2800;49.528;8.666;2023-06-22T14:21:07;31.50;55.30
5554;DHT22;2800;49.528;8.666;2023-06-22T14:23:33;31.10;55.20
5554;DHT22;2800;49.528;8.666;2023-06-22T14:25:58;30.70;55.20
5554;DHT22;2800;49.528;8.666;2023-06-22T14:28:24;30.60;56.90
5554;DHT22;2800;49.528;8.666;2023-06-22T14:30:49;30.50;58.50
5554;DHT22;2800;49.528;8.666;2023-06-22T14:33:15;30.40;59.20
5554;DHT22;2800;49.528;8.666;2023-06-22T14:35:40;30.30;61.40
5554;DHT22;2800;49.528;8.666;2023-06-22T14:38:06;30.30;61.50
5554;DHT22;2800;49.528;8.666;2023-06-22T14:40:32;30.30;65.00
5554;DHT22;2800;49.528;8.666;2023-06-22T14:42:57;30.30;64.60
5554;DHT22;2800;49.528;8.666;2023-06-22T14:45:23;30.30;65.80
5554;DHT22;2800;49.528;8.666;2023-06-22T14:47:49;30.10;69.60
5554;DHT22;2800;49.528;8.666;2023-06-22T14:50:15;30.20;72.00
5554;DHT22;2800;49.528;8.666;2023-06-22T14:52:40;30.20;75.00
5554;DHT22;2800;49.528;8.666;2023-06-22T14:55:06;30.10;77.50
5554;DHT22;2800;49.528;8.666;2023-06-22T14:57:32;30.10;80.30
5554;DHT22;2800;49.528;8.666;2023-06-22T14:59:58;30.00;82.70
5554;DHT22;2800;49.528;8.666;2023-06-22T15:02:23;30.00;87.20
5554;DHT22;2800;49.528;8.666;2023-06-22T15:04:49;29.80;82.10
5554;DHT22;2800;49.528;8.666;2023-06-22T15:07:14;29.70;88.20
5554;DHT22;2800;49.528;8.666;2023-06-22T15:09:40;29.50;85.60
5554;DHT22;2800;49.528;8.666;2023-06-22T15:12:08;30.40;86.60
5554;DHT22;2800;49.528;8.666;2023-06-22T15:14:40;29.70;86.10
5554;DHT22;2800;49.528;8.666;2023-06-22T15:17:06;29.70;84.30
5554;DHT22;2800;49.528;8.666;2023-06-22T15:19:35;29.80;87.10
5554;DHT22;2800;49.528;8.666;2023-06-22T15:22:01;29.90;83.30
5554;DHT22;2800;49.528;8.666;2023-06-22T15:24:26;29.90;85.30
5554;DHT22;2800;49.528;8.666;2023-06-22T15:26:52;30.20;86.10
5554;DHT22;2800;49.528;8.666;2023-06-22T15:29:17;30.30;87.00
5554;DHT22;2800;49.528;8.666;2023-06-22T15:31:44;30.60;87.20
5554;DHT22;2800;49.528;8.666;2023-06-22T15:34:13;30.50;87.10
5554;DHT22;2800;49.528;8.666;2023-06-22T15:36:38;30.50;90.30
5554;DHT22;2800;49.528;8.666;2023-06-22T15:39:04;30.50;89.10
5554;DHT22;2800;49.528;8.666;2023-06-22T15:41:29;30.60;89.20
5554;DHT22;2800;49.528;8.666;2023-06-22T15:43:55;30.20;92.20
5554;DHT22;2800;49.528;8.666;2023-06-22T15:46:20;30.20;94.40
5554;DHT22;2800;49.528;8.666;2023-06-22T15:48:46;30.00;93.60
5554;DHT22;2800;49.528;8.666;2023-06-22T15:51:12;29.60;94.60
5554;DHT22;2800;49.528;8.666;2023-06-22T15:53:38;29.40;98.30
5554;DHT22;2800;49.528;8.666;2023-06-22T15:56:05;29.30;99.80
5554;DHT22;2800;49.528;8.666;2023-06-22T15:58:34;29.50;99.90